Detroit, ME (04929)

6:23 AM EST on February 07, 2016 (GMT -0500)
APRSWXNET | | Change Station
CLOSE
Current Station
Personal Weather Station
Location: Plymouth, ME
Elevation: 316 ft
Nearby Weather Stations

Elev 316 ft 44.80 °N, 69.26 °W | Updated 24 minutes ago

Mostly Cloudy
Mostly Cloudy
26 °F
Feels Like 20 °F
N
5
Wind Variable Wind from SSW
Gusts 9.0 mph

Today
High -- | Low -- °F
--% Chance of Precip.
Yesterday
High -- | Low -- °F
Precip. -- in
Pressure 30.06 in
Visibility 10.0 miles
Clouds Scattered Clouds 5500 ft
Mostly Cloudy 12000 ft
Windchill 20 °F
Dew Point 23 °F
Humidity 89%
Rainfall in
Snow Depth Not available.
6:49 AM 4:53 PM
Waning Crescent, 2% visible
METAR KBGR 071053Z 22003KT 10SM SCT055 BKN120 M02/M06 A3005 RMK AO2 SLP180 T10221061
Pressure 30.06 in
Visibility 10.0 miles
Clouds Scattered Clouds 5500 ft
Mostly Cloudy 12000 ft
Windchill 20 °F
Dew Point 23 °F
Humidity 89%
Rainfall in
Snow Depth Not available.
6:49 AM 4:53 PM
Waning Crescent, 2% visible
METAR KBGR 071053Z 22003KT 10SM SCT055 BKN120 M02/M06 A3005 RMK AO2 SLP180 T10221061

10-Day Weather Forecast

Almanac

Astronomy

Feb. 07, 2016 Rise Set
Actual Time
Civil Twilight
Nautical Twilight
Astronomical Twilight
Moon
Length of Visible Light
Length of Day
Tomorrow will be .
, % of the Moon is Illuminated

Today's Extremes

State Highs State Lows

Community

WunderPhotos

Upload Photos

1,891,170 photos uploaded!

WunderBlog® & News

Nearby

Air Quality

  Air Quality AQ Index Pollutant
Not available.

Snow Depth

Station Depth Elevation

Earthquake Activity

City Distance Mag. Time & Date
Minimum magnitude displayed is 2.5.

Coastal Water Temperatures

Place Temperature

Stations

Nearby Weather Stations

Station Location Temp. Windchill Dew Point Humidity Wind Precip. Elev Updated Type
                   

Watches & Warnings

There are currently no watches in effect.